createdAt,value
2022-12-08T04:46:02.423Z,100392.28
2022-12-08T04:48:34.860Z,100391.42
2022-12-08T04:51:06.912Z,100399.37
2022-12-08T04:53:38.390Z,100391.92
2022-12-08T04:56:15.548Z,100393.41
2022-12-08T04:58:46.922Z,100399.78
2022-12-08T05:01:16.436Z,100395.60
2022-12-08T05:03:47.153Z,100398.44
2022-12-08T05:06:17.730Z,100410.56
2022-12-08T05:08:47.704Z,100411.55
2022-12-08T05:11:17.554Z,100409.13
2022-12-08T05:13:48.995Z,100412.67
2022-12-08T05:16:18.904Z,100415.01
2022-12-08T05:18:50.220Z,100416.22
2022-12-08T05:21:20.765Z,100424.67
2022-12-08T05:23:51.775Z,100427.50
2022-12-08T05:26:23.565Z,100431.31
2022-12-08T05:28:53.547Z,100434.64
2022-12-08T05:31:23.955Z,100439.67
2022-12-08T05:33:53.757Z,100453.91
2022-12-08T05:36:24.910Z,100449.63
2022-12-08T05:38:58.264Z,100450.13
2022-12-08T05:41:29.050Z,100454.30
2022-12-08T05:43:58.757Z,100462.88
2022-12-08T05:46:29.458Z,100459.33
2022-12-08T05:49:00.974Z,100463.99
2022-12-08T05:51:31.179Z,100459.23
2022-12-08T05:54:02.311Z,100454.82
2022-12-08T05:56:32.443Z,100457.39
2022-12-08T05:59:02.812Z,100458.97
2022-12-08T06:01:33.392Z,100462.02
2022-12-08T06:04:03.797Z,100467.91
2022-12-08T06:06:36.417Z,100471.09
2022-12-08T06:09:07.205Z,100474.77
2022-12-08T06:11:38.349Z,100472.44
2022-12-08T06:14:12.312Z,100475.86
2022-12-08T06:16:42.062Z,100475.36
2022-12-08T06:19:12.724Z,100481.25
2022-12-08T06:21:42.377Z,100480.75
2022-12-08T06:24:11.905Z,100479.28
2022-12-08T06:26:41.430Z,100485.39
2022-12-08T06:29:13.492Z,100488.71
2022-12-08T06:31:44.642Z,100489.95
2022-12-08T06:34:15.744Z,100498.17
2022-12-08T06:36:47.548Z,100497.68
2022-12-08T06:39:17.256Z,100498.30
2022-12-08T06:42:07.239Z,100501.48
2022-12-08T06:44:39.018Z,100509.45
2022-12-08T06:47:09.461Z,100511.75
2022-12-08T06:49:40.473Z,100517.73
2022-12-08T06:52:11.550Z,100520.44
2022-12-08T06:54:41.907Z,100520.80
2022-12-08T06:57:11.895Z,100519.94
2022-12-08T06:59:43.053Z,100520.07
2022-12-08T07:02:15.655Z,100513.20
2022-12-08T07:04:46.752Z,100527.30
2022-12-08T07:07:17.185Z,100521.31
2022-12-08T07:09:48.457Z,100524.01
2022-12-08T07:12:19.359Z,100528.41
2022-12-08T07:14:50.222Z,100529.87
2022-12-08T07:17:20.853Z,100530.59
2022-12-08T07:19:52.541Z,100532.30
2022-12-08T07:22:22.323Z,100526.80
2022-12-08T07:24:51.877Z,100528.16
2022-12-08T07:27:23.085Z,100533.65
2022-12-08T07:29:53.815Z,100534.64
2022-12-08T07:32:24.481Z,100539.89
2022-12-08T07:34:55.620Z,100538.55
2022-12-08T07:37:26.582Z,100546.38
2022-12-08T07:39:56.116Z,100556.05
2022-12-08T07:42:26.546Z,100559.95
2022-12-08T07:44:55.407Z,100556.77
2022-12-08T07:47:25.114Z,100551.73
2022-12-08T07:49:55.147Z,100547.59
2022-12-08T07:52:25.308Z,100550.42
2022-12-08T07:54:55.606Z,100560.22
2022-12-08T07:57:26.232Z,100557.39
2022-12-08T07:59:57.428Z,100563.14
2022-12-08T08:02:29.912Z,100566.83
2022-12-08T08:05:00.951Z,100572.47
2022-12-08T08:07:32.536Z,100566.10
2022-12-08T08:10:04.131Z,100567.81
2022-12-08T08:12:34.030Z,100576.26
2022-12-08T08:15:06.092Z,100573.56
2022-12-08T08:17:37.099Z,100577.61
2022-12-08T08:20:09.078Z,100578.70
2022-12-08T08:22:39.863Z,100581.13
2022-12-08T08:25:09.983Z,100580.52
2022-12-08T08:27:40.638Z,100580.15
2022-12-08T08:30:16.621Z,100581.76
2022-12-08T08:32:43.880Z,100585.31
2022-12-08T08:35:14.852Z,100585.80
2022-12-08T08:37:48.786Z,100587.52
2022-12-08T08:40:18.206Z,100586.53
2022-12-08T08:42:48.392Z,100581.98
2022-12-08T08:45:18.006Z,100578.80
2022-12-08T08:47:48.901Z,100586.40
2022-12-08T08:50:18.317Z,100580.38
2022-12-08T08:52:48.357Z,100580.52
2022-12-08T08:55:20.400Z,100582.48
2022-12-08T08:57:49.921Z,100582.38
2022-12-08T09:00:20.674Z,100574.30
2022-12-08T09:02:50.584Z,100580.53
2022-12-08T09:05:20.874Z,100582.74
2022-12-08T09:07:50.566Z,100586.66
2022-12-08T09:10:20.344Z,100587.02
2022-12-08T09:12:50.334Z,100582.84
2022-12-08T09:15:20.574Z,100583.58
2022-12-08T09:17:52.648Z,100584.33
2022-12-08T09:20:21.520Z,100584.33
2022-12-08T09:22:50.510Z,100580.02
2022-12-08T09:25:21.577Z,100580.02
2022-12-08T09:27:52.735Z,100581.02
2022-12-08T09:30:23.262Z,100582.23
2022-12-08T09:32:53.423Z,100579.53
2022-12-08T09:35:22.519Z,100579.66
2022-12-08T09:37:52.730Z,100581.50
2022-12-08T09:40:23.753Z,100582.98
2022-12-08T09:43:04.955Z,100583.08
2022-12-08T09:45:36.517Z,100582.72
2022-12-08T09:48:14.522Z,100595.58
2022-12-08T09:50:57.694Z,100594.72
2022-12-08T09:53:46.884Z,100582.84
2022-12-08T09:56:25.830Z,100586.40
2022-12-08T10:02:03.271Z,100577.44
2022-12-08T10:04:37.494Z,100583.22
2022-12-08T14:09:46.197Z,100611.46
2022-12-08T14:12:27.258Z,100609.26
2022-12-08T14:15:05.787Z,100607.66
2022-12-08T14:17:35.173Z,100613.53
2022-12-08T14:20:33.856Z,100612.30
2022-12-08T14:23:06.622Z,100621.36
2022-12-08T14:25:36.592Z,100616.22
2022-12-08T14:28:06.052Z,100615.11
2022-12-08T14:30:37.164Z,100612.17
2022-12-08T14:33:06.577Z,100614.13
2022-12-08T14:35:38.187Z,100609.87
2022-12-08T14:38:16.204Z,100610.83
2022-12-08T14:41:06.129Z,100609.73
2022-12-08T14:43:35.872Z,100612.17
2022-12-08T14:46:23.029Z,100610.20
2022-12-08T14:48:54.708Z,100623.31
2022-12-08T14:51:30.528Z,100621.11
2022-12-08T14:54:10.428Z,100609.35
2022-12-08T14:56:56.138Z,100612.53
2022-12-08T14:59:33.911Z,100603.23
2022-12-08T15:02:22.245Z,100617.44
2022-12-08T15:05:02.086Z,100611.92
2022-12-08T15:07:49.544Z,100609.35
2022-12-08T15:10:26.329Z,100608.00
2022-12-08T15:13:11.371Z,100602.98
2022-12-08T15:15:53.031Z,100614.98
2022-12-08T15:18:37.815Z,100619.98
2022-12-08T15:21:09.327Z,100615.09
2022-12-08T15:23:54.195Z,100612.03
2022-12-08T15:26:26.920Z,100611.54
2022-12-08T15:28:58.738Z,100618.39
2022-12-08T15:31:27.709Z,100623.78
2022-12-08T15:33:59.995Z,100619.12
2022-12-08T15:36:29.066Z,100617.77
2022-12-08T15:38:59.277Z,100616.92
2022-12-08T15:41:30.290Z,100610.91
2022-12-08T15:44:04.628Z,100613.11
2022-12-08T15:46:35.560Z,100617.16
2022-12-08T15:49:08.040Z,100626.34
2022-12-08T15:51:38.528Z,100620.72
2022-12-08T15:54:07.774Z,100622.81
2022-12-08T15:56:56.150Z,100627.34
2022-12-08T15:59:18.205Z,100628.69
2022-12-08T16:01:46.785Z,100626.73
2022-12-08T16:05:18.320Z,100628.56
2022-12-08T16:09:44.802Z,100622.45
2022-12-08T16:13:40.402Z,100624.77
2022-12-08T16:17:42.418Z,100621.21
2022-12-08T16:20:15.549Z,100619.73
2022-12-08T16:22:54.466Z,100615.82
2022-12-08T16:25:20.576Z,100622.68
2022-12-08T16:28:23.386Z,100612.77
2022-12-08T16:30:20.099Z,100613.86
2022-12-08T16:32:52.750Z,100606.75
2022-12-08T16:38:07.881Z,100615.44
2022-12-08T16:40:44.399Z,100606.50
2022-12-08T16:43:13.352Z,100609.06
2022-12-08T16:45:46.682Z,100613.36
2022-12-08T16:48:16.679Z,100613.13
2022-12-08T16:50:45.525Z,100610.32
2022-12-08T16:53:15.307Z,100612.28
2022-12-08T16:55:49.654Z,100602.13
2022-12-08T16:58:25.364Z,100603.59
2022-12-08T17:00:55.713Z,100593.20
2022-12-08T17:04:07.198Z,100599.33
2022-12-08T17:06:20.403Z,100602.64
2022-12-08T17:08:51.819Z,100595.63
2022-12-08T17:11:23.573Z,100587.31
2022-12-08T17:13:53.668Z,100589.28
2022-12-08T17:16:22.680Z,100589.28
2022-12-08T17:18:53.620Z,100589.15
2022-12-08T17:21:22.398Z,100587.31
2022-12-08T17:23:52.531Z,100589.77
2022-12-08T17:26:21.296Z,100579.36
2022-12-08T17:29:06.074Z,100581.44
2022-12-08T17:31:26.120Z,100585.23
2022-12-08T17:33:52.569Z,100588.05
2022-12-08T17:36:23.328Z,100584.75
2022-12-08T17:38:55.465Z,100581.44
2022-12-08T17:41:24.761Z,100579.36
2022-12-08T17:43:53.926Z,100572.63
2022-12-08T17:46:23.125Z,100572.27
2022-12-08T17:48:52.182Z,100572.39
2022-12-08T17:51:21.139Z,100574.22
2022-12-08T17:53:49.951Z,100570.80
2022-12-08T17:56:20.803Z,100576.06
2022-12-08T17:58:54.334Z,100565.28
2022-12-08T18:01:22.614Z,100571.04
2022-12-08T18:03:52.193Z,100575.45
2022-12-08T18:06:21.302Z,100572.63
2022-12-08T18:08:50.315Z,100574.34
2022-12-08T18:11:19.852Z,100576.05
2022-12-08T18:13:49.551Z,100580.09
2022-12-08T18:16:19.806Z,100579.11
2022-12-08T18:18:48.861Z,100574.09
2022-12-08T18:21:23.317Z,100577.76
2022-12-08T18:23:48.320Z,100574.83
2022-12-08T18:26:17.038Z,100574.83
2022-12-08T18:28:45.976Z,100583.03
2022-12-08T18:31:18.336Z,100587.31
2022-12-08T18:33:47.556Z,100582.91
2022-12-08T18:36:23.484Z,100581.69
2022-12-08T18:38:52.849Z,100575.94
2022-12-08T18:41:25.479Z,100569.33
2022-12-08T18:43:54.854Z,100570.19
2022-12-08T18:46:24.247Z,100572.75
2022-12-08T18:48:53.045Z,100568.58
2022-12-08T18:51:23.990Z,100568.22
2022-12-08T18:53:53.423Z,100571.28
2022-12-08T18:56:29.579Z,100559.16
2022-12-08T18:59:03.503Z,100554.38
2022-12-08T19:01:33.410Z,100550.61
2022-12-08T19:06:39.039Z,100544.23
